sensor_id;sensor_type;location;lat;lon;timestamp;noise_LAeq;noise_LA_min;noise_LA_max;noise_LA01;noise_LA95
67298;Laerm;65443;51.436;5.978;2023-06-10T00:00:06;57.27;40.99;74.31;;
67298;Laerm;65443;51.436;5.978;2023-06-10T00:00:17;58.84;33.67;74.90;;
67298;Laerm;65443;51.436;5.978;2023-06-10T00:00:27;34.65;32.48;38.10;;
67298;Laerm;65443;51.436;5.978;2023-06-10T00:00:38;34.34;32.47;36.76;;
67298;Laerm;65443;51.436;5.978;2023-06-10T00:00:48;36.66;33.32;41.74;;
67298;Laerm;65443;51.436;5.978;2023-06-10T00:00:58;61.03;39.61;74.36;;
67298;Laerm;65443;51.436;5.978;2023-06-10T00:01:09;40.40;35.47;47.51;;
67298;Laerm;65443;51.436;5.978;2023-06-10T00:01:20;37.07;34.46;39.57;;
67298;Laerm;65443;51.436;5.978;2023-06-10T00:01:30;34.59;32.14;36.69;;
67298;Laerm;65443;51.436;5.978;2023-06-10T00:01:41;33.91;32.17;36.53;;
67298;Laerm;65443;51.436;5.978;2023-06-10T00:01:53;33.69;31.80;35.69;;
67298;Laerm;65443;51.436;5.978;2023-06-10T00:02:06;38.01;32.29;45.78;;
67298;Laerm;65443;51.436;5.978;2023-06-10T00:02:16;54.76;38.83;63.61;;
67298;Laerm;65443;51.436;5.978;2023-06-10T00:02:27;38.85;36.47;41.91;;
67298;Laerm;65443;51.436;5.978;2023-06-10T00:02:37;37.85;33.67;42.14;;
67298;Laerm;65443;51.436;5.978;2023-06-10T00:02:48;34.46;32.32;36.07;;
67298;Laerm;65443;51.436;5.978;2023-06-10T00:02:58;34.82;32.83;36.31;;
67298;Laerm;65443;51.436;5.978;2023-06-10T00:03:09;34.22;32.78;36.54;;
67298;Laerm;65443;51.436;5.978;2023-06-10T00:03:20;34.99;32.57;37.21;;
67298;Laerm;65443;51.436;5.978;2023-06-10T00:03:33;34.75;32.62;37.21;;
67298;Laerm;65443;51.436;5.978;2023-06-10T00:03:43;33.91;32.16;35.74;;
67298;Laerm;65443;51.436;5.978;2023-06-10T00:03:54;33.74;32.38;35.00;;
67298;Laerm;65443;51.436;5.978;2023-06-10T00:04:04;33.70;32.08;35.28;;
67298;Laerm;65443;51.436;5.978;2023-06-10T00:04:15;60.02;33.01;67.51;;
67298;Laerm;65443;51.436;5.978;2023-06-10T00:04:26;63.88;58.72;69.07;;
67298;Laerm;65443;51.436;5.978;2023-06-10T00:04:37;61.94;56.77;65.22;;
67298;Laerm;65443;51.436;5.978;2023-06-10T00:04:47;60.10;55.54;63.38;;
67298;Laerm;65443;51.436;5.978;2023-06-10T00:04:57;60.46;55.59;63.19;;
67298;Laerm;65443;51.436;5.978;2023-06-10T00:05:08;74.21;55.79;80.81;;
67298;Laerm;65443;51.436;5.978;2023-06-10T00:05:19;76.50;72.77;81.30;;
67298;Laerm;65443;51.436;5.978;2023-06-10T00:05:31;73.24;58.17;79.96;;
67298;Laerm;65443;51.436;5.978;2023-06-10T00:05:41;58.88;42.72;66.64;;
67298;Laerm;65443;51.436;5.978;2023-06-10T00:05:52;42.57;38.90;46.98;;
67298;Laerm;65443;51.436;5.978;2023-06-10T00:06:02;39.86;36.15;43.77;;
67298;Laerm;65443;51.436;5.978;2023-06-10T00:06:13;36.29;34.35;38.55;;
67298;Laerm;65443;51.436;5.978;2023-06-10T00:06:23;37.58;35.28;40.10;;
67298;Laerm;65443;51.436;5.978;2023-06-10T00:06:34;36.99;35.02;39.45;;
67298;Laerm;65443;51.436;5.978;2023-06-10T00:06:47;36.65;34.15;39.09;;
67298;Laerm;65443;51.436;5.978;2023-06-10T00:06:59;35.47;33.64;38.10;;
67298;Laerm;65443;51.436;5.978;2023-06-10T00:07:09;35.07;33.03;37.41;;
67298;Laerm;65443;51.436;5.978;2023-06-10T00:07:20;33.82;31.82;37.63;;
67298;Laerm;65443;51.436;5.978;2023-06-10T00:07:30;33.53;32.04;35.41;;
67298;Laerm;65443;51.436;5.978;2023-06-10T00:07:40;33.84;31.88;39.40;;
67298;Laerm;65443;51.436;5.978;2023-06-10T00:07:51;34.68;32.69;36.35;;
67298;Laerm;65443;51.436;5.978;2023-06-10T00:08:05;34.23;32.17;36.13;;
67298;Laerm;65443;51.436;5.978;2023-06-10T00:08:18;34.59;32.51;37.62;;
67298;Laerm;65443;51.436;5.978;2023-06-10T00:08:29;34.99;33.01;38.15;;
67298;Laerm;65443;51.436;5.978;2023-06-10T00:08:41;35.91;33.46;40.65;;
67298;Laerm;65443;51.436;5.978;2023-06-10T00:08:52;46.48;34.19;60.13;;
67298;Laerm;65443;51.436;5.978;2023-06-10T00:09:04;47.90;35.04;60.02;;
67298;Laerm;65443;51.436;5.978;2023-06-10T00:09:20;41.13;33.82;53.82;;
67298;Laerm;65443;51.436;5.978;2023-06-10T00:09:31;35.82;33.23;39.35;;
67298;Laerm;65443;51.436;5.978;2023-06-10T00:09:41;35.43;33.38;38.31;;
67298;Laerm;65443;51.436;5.978;2023-06-10T00:09:51;37.99;34.59;42.55;;
67298;Laerm;65443;51.436;5.978;2023-06-10T00:10:02;38.37;35.51;41.57;;
67298;Laerm;65443;51.436;5.978;2023-06-10T00:10:15;36.15;32.58;39.63;;
67298;Laerm;65443;51.436;5.978;2023-06-10T00:10:25;35.58;32.37;45.23;;
67298;Laerm;65443;51.436;5.978;2023-06-10T00:10:37;33.82;32.05;37.15;;
67298;Laerm;65443;51.436;5.978;2023-06-10T00:10:48;34.14;32.35;35.82;;
67298;Laerm;65443;51.436;5.978;2023-06-10T00:10:58;34.82;32.44;43.60;;
67298;Laerm;65443;51.436;5.978;2023-06-10T00:11:08;34.44;32.65;36.29;;
67298;Laerm;65443;51.436;5.978;2023-06-10T00:11:20;33.83;31.98;35.72;;
67298;Laerm;65443;51.436;5.978;2023-06-10T00:11:32;34.06;32.48;35.48;;
67298;Laerm;65443;51.436;5.978;2023-06-10T00:11:42;35.44;32.38;38.71;;
67298;Laerm;65443;51.436;5.978;2023-06-10T00:11:52;33.58;31.95;35.07;;
67298;Laerm;65443;51.436;5.978;2023-06-10T00:12:03;34.05;32.36;35.35;;
67298;Laerm;65443;51.436;5.978;2023-06-10T00:12:14;34.32;32.36;37.23;;
67298;Laerm;65443;51.436;5.978;2023-06-10T00:12:24;33.81;32.08;34.98;;
67298;Laerm;65443;51.436;5.978;2023-06-10T00:12:35;33.25;31.55;34.72;;
67298;Laerm;65443;51.436;5.978;2023-06-10T00:12:47;33.81;31.42;36.15;;
67298;Laerm;65443;51.436;5.978;2023-06-10T00:12:57;35.20;33.40;37.12;;
67298;Laerm;65443;51.436;5.978;2023-06-10T00:13:07;34.48;32.44;36.52;;
67298;Laerm;65443;51.436;5.978;2023-06-10T00:13:18;33.74;31.83;35.61;;
67298;Laerm;65443;51.436;5.978;2023-06-10T00:13:29;33.29;31.59;34.60;;
67298;Laerm;65443;51.436;5.978;2023-06-10T00:13:39;33.26;31.38;34.64;;
67298;Laerm;65443;51.436;5.978;2023-06-10T00:13:50;33.36;31.69;35.08;;
67298;Laerm;65443;51.436;5.978;2023-06-10T00:14:00;33.43;31.75;35.23;;
67298;Laerm;65443;51.436;5.978;2023-06-10T00:14:11;34.29;32.61;35.77;;
67298;Laerm;65443;51.436;5.978;2023-06-10T00:14:21;34.15;32.45;36.09;;
67298;Laerm;65443;51.436;5.978;2023-06-10T00:14:31;33.67;32.20;35.67;;
67298;Laerm;65443;51.436;5.978;2023-06-10T00:14:42;34.89;32.18;37.04;;
67298;Laerm;65443;51.436;5.978;2023-06-10T00:14:52;33.51;31.94;34.94;;
67298;Laerm;65443;51.436;5.978;2023-06-10T00:15:04;33.77;31.87;35.25;;
67298;Laerm;65443;51.436;5.978;2023-06-10T00:15:14;33.61;32.08;35.25;;
67298;Laerm;65443;51.436;5.978;2023-06-10T00:15:25;34.84;32.55;36.65;;
67298;Laerm;65443;51.436;5.978;2023-06-10T00:15:35;34.07;32.32;36.89;;
67298;Laerm;65443;51.436;5.978;2023-06-10T00:15:45;33.93;32.41;36.65;;
67298;Laerm;65443;51.436;5.978;2023-06-10T00:15:56;33.59;32.02;35.38;;
67298;Laerm;65443;51.436;5.978;2023-06-10T00:16:06;34.42;32.75;35.97;;
67298;Laerm;65443;51.436;5.978;2023-06-10T00:16:16;34.96;33.30;37.39;;
67298;Laerm;65443;51.436;5.978;2023-06-10T00:16:27;34.39;32.52;36.21;;
67298;Laerm;65443;51.436;5.978;2023-06-10T00:16:38;34.07;32.55;35.28;;
67298;Laerm;65443;51.436;5.978;2023-06-10T00:16:48;33.88;31.48;35.64;;
67298;Laerm;65443;51.436;5.978;2023-06-10T00:16:59;34.43;32.86;37.38;;
67298;Laerm;65443;51.436;5.978;2023-06-10T00:17:09;34.64;32.74;36.78;;
67298;Laerm;65443;51.436;5.978;2023-06-10T00:17:20;35.56;33.92;37.86;;
67298;Laerm;65443;51.436;5.978;2023-06-10T00:17:30;34.90;33.34;36.98;;
67298;Laerm;65443;51.436;5.978;2023-06-10T00:17:40;34.35;33.02;36.14;;
67298;Laerm;65443;51.436;5.978;2023-06-10T00:17:51;34.40;32.59;36.09;;
67298;Laerm;65443;51.436;5.978;2023-06-10T00:18:03;34.01;32.39;35.69;;
67298;Laerm;65443;51.436;5.978;2023-06-10T00:18:13;34.35;32.51;36.20;;
67298;Laerm;65443;51.436;5.978;2023-06-10T00:18:24;34.34;32.58;36.28;;
67298;Laerm;65443;51.436;5.978;2023-06-10T00:18:36;34.15;32.57;36.70;;
67298;Laerm;65443;51.436;5.978;2023-06-10T00:18:49;63.71;32.87;70.98;;
67298;Laerm;65443;51.436;5.978;2023-06-10T00:19:01;63.74;56.93;68.76;;
67298;Laerm;65443;51.436;5.978;2023-06-10T00:19:12;64.75;60.01;68.04;;
67298;Laerm;65443;51.436;5.978;2023-06-10T00:19:26;64.13;58.12;68.27;;
67298;Laerm;65443;51.436;5.978;2023-06-10T00:19:40;79.73;65.90;85.51;;
67298;Laerm;65443;51.436;5.978;2023-06-10T00:19:51;69.15;45.91;79.43;;
67298;Laerm;65443;51.436;5.978;2023-06-10T00:20:03;43.78;40.09;48.13;;
67298;Laerm;65443;51.436;5.978;2023-06-10T00:20:19;39.89;35.58;43.04;;
67298;Laerm;65443;51.436;5.978;2023-06-10T00:20:33;38.04;33.92;42.29;;
67298;Laerm;65443;51.436;5.978;2023-06-10T00:20:46;39.48;35.37;43.53;;
67298;Laerm;65443;51.436;5.978;2023-06-10T00:20:57;35.78;32.82;38.80;;
67298;Laerm;65443;51.436;5.978;2023-06-10T00:21:13;35.76;32.82;40.66;;
67298;Laerm;65443;51.436;5.978;2023-06-10T00:21:23;37.64;32.47;44.57;;
67298;Laerm;65443;51.436;5.978;2023-06-10T00:21:35;34.21;31.74;39.98;;
67298;Laerm;65443;51.436;5.978;2023-06-10T00:21:50;32.64;30.89;34.69;;
67298;Laerm;65443;51.436;5.978;2023-06-10T00:22:01;32.06;30.09;34.06;;
67298;Laerm;65443;51.436;5.978;2023-06-10T00:22:11;33.07;30.48;36.03;;
67298;Laerm;65443;51.436;5.978;2023-06-10T00:22:22;37.97;33.85;42.75;;
67298;Laerm;65443;51.436;5.978;2023-06-10T00:22:32;40.33;37.26;43.63;;
67298;Laerm;65443;51.436;5.978;2023-06-10T00:22:42;54.10;40.78;59.01;;
67298;Laerm;65443;51.436;5.978;2023-06-10T00:22:55;40.47;33.58;46.57;;
67298;Laerm;65443;51.436;5.978;2023-06-10T00:23:07;34.08;31.46;37.31;;
67298;Laerm;65443;51.436;5.978;2023-06-10T00:23:18;32.22;30.22;36.82;;
67298;Laerm;65443;51.436;5.978;2023-06-10T00:23:29;33.45;31.17;37.40;;
67298;Laerm;65443;51.436;5.978;2023-06-10T00:23:41;33.17;30.65;37.64;;
67298;Laerm;65443;51.436;5.978;2023-06-10T00:23:51;33.42;31.13;36.39;;
67298;Laerm;65443;51.436;5.978;2023-06-10T00:24:05;33.63;31.97;36.23;;
67298;Laerm;65443;51.436;5.978;2023-06-10T00:24:15;39.58;33.60;44.25;;
67298;Laerm;65443;51.436;5.978;2023-06-10T00:24:25;38.50;33.85;42.29;;
67298;Laerm;65443;51.436;5.978;2023-06-10T00:24:36;35.98;33.35;38.22;;
67298;Laerm;65443;51.436;5.978;2023-06-10T00:24:46;37.56;35.08;42.59;;
67298;Laerm;65443;51.436;5.978;2023-06-10T00:24:57;36.04;32.35;42.70;;
67298;Laerm;65443;51.436;5.978;2023-06-10T00:25:08;34.42;31.89;37.33;;
67298;Laerm;65443;51.436;5.978;2023-06-10T00:25:19;34.15;31.67;37.13;;
67298;Laerm;65443;51.436;5.978;2023-06-10T00:25:29;33.26;31.12;35.26;;
67298;Laerm;65443;51.436;5.978;2023-06-10T00:25:39;34.77;31.15;38.60;;
67298;Laerm;65443;51.436;5.978;2023-06-10T00:25:50;36.29;31.49;39.34;;
67298;Laerm;65443;51.436;5.978;2023-06-10T00:26:00;33.70;31.39;37.45;;
67298;Laerm;65443;51.436;5.978;2023-06-10T00:26:10;35.79;32.71;39.83;;
67298;Laerm;65443;51.436;5.978;2023-06-10T00:26:23;35.81;32.36;39.42;;
67298;Laerm;65443;51.436;5.978;2023-06-10T00:26:34;34.08;31.43;38.36;;
67298;Laerm;65443;51.436;5.978;2023-06-10T00:26:44;33.88;31.26;38.17;;
67298;Laerm;65443;51.436;5.978;2023-06-10T00:26:55;33.24;31.16;35.72;;
67298;Laerm;65443;51.436;5.978;2023-06-10T00:27:05;33.51;30.89;36.59;;
67298;Laerm;65443;51.436;5.978;2023-06-10T00:27:16;32.36;30.30;34.99;;
67298;Laerm;65443;51.436;5.978;2023-06-10T00:27:27;32.67;30.61;36.23;;
67298;Laerm;65443;51.436;5.978;2023-06-10T00:27:41;31.64;29.35;34.95;;
67298;Laerm;65443;51.436;5.978;2023-06-10T00:27:51;31.90;29.89;36.25;;
67298;Laerm;65443;51.436;5.978;2023-06-10T00:28:01;30.94;29.49;32.39;;
67298;Laerm;65443;51.436;5.978;2023-06-10T00:28:12;31.01;29.25;32.52;;
67298;Laerm;65443;51.436;5.978;2023-06-10T00:28:23;30.91;29.42;32.75;;
67298;Laerm;65443;51.436;5.978;2023-06-10T00:28:33;31.01;29.60;33.19;;
67298;Laerm;65443;51.436;5.978;2023-06-10T00:28:43;31.28;29.63;34.10;;
67298;Laerm;65443;51.436;5.978;2023-06-10T00:28:55;30.57;29.17;32.00;;
67298;Laerm;65443;51.436;5.978;2023-06-10T00:29:05;30.52;29.42;32.33;;
67298;Laerm;65443;51.436;5.978;2023-06-10T00:29:15;30.65;29.21;32.63;;
67298;Laerm;65443;51.436;5.978;2023-06-10T00:29:26;30.96;28.93;35.06;;
67298;Laerm;65443;51.436;5.978;2023-06-10T00:29:36;30.89;29.19;37.21;;
67298;Laerm;65443;51.436;5.978;2023-06-10T00:29:46;30.78;29.41;32.21;;
67298;Laerm;65443;51.436;5.978;2023-06-10T00:29:57;30.98;29.66;32.48;;
67298;Laerm;65443;51.436;5.978;2023-06-10T00:30:07;31.07;29.48;33.08;;
67298;Laerm;65443;51.436;5.978;2023-06-10T00:30:18;30.96;29.12;33.16;;
67298;Laerm;65443;51.436;5.978;2023-06-10T00:30:28;31.14;29.43;33.44;;
67298;Laerm;65443;51.436;5.978;2023-06-10T00:30:38;31.10;29.41;32.89;;
67298;Laerm;65443;51.436;5.978;2023-06-10T00:30:49;30.78;29.42;32.44;;
67298;Laerm;65443;51.436;5.978;2023-06-10T00:30:59;30.94;29.44;33.41;;
67298;Laerm;65443;51.436;5.978;2023-06-10T00:31:09;61.12;29.88;77.13;;
67298;Laerm;65443;51.436;5.978;2023-06-10T00:31:20;31.39;29.65;33.91;;
67298;Laerm;65443;51.436;5.978;2023-06-10T00:31:30;31.06;29.60;32.95;;
67298;Laerm;65443;51.436;5.978;2023-06-10T00:31:40;32.99;30.15;42.51;;
67298;Laerm;65443;51.436;5.978;2023-06-10T00:31:51;38.43;31.82;43.52;;
67298;Laerm;65443;51.436;5.978;2023-06-10T00:32:03;37.86;32.18;43.85;;
67298;Laerm;65443;51.436;5.978;2023-06-10T00:32:14;54.63;39.51;74.24;;
67298;Laerm;65443;51.436;5.978;2023-06-10T00:32:24;35.39;30.20;41.34;;
67298;Laerm;65443;51.436;5.978;2023-06-10T00:32:35;31.17;29.46;33.74;;
67298;Laerm;65443;51.436;5.978;2023-06-10T00:32:45;30.96;29.22;33.78;;
67298;Laerm;65443;51.436;5.978;2023-06-10T00:32:56;30.70;29.08;33.15;;
67298;Laerm;65443;51.436;5.978;2023-06-10T00:33:06;30.81;29.60;32.50;;
67298;Laerm;65443;51.436;5.978;2023-06-10T00:33:16;31.53;29.88;35.63;;
67298;Laerm;65443;51.436;5.978;2023-06-10T00:33:26;31.44;29.60;34.16;;
67298;Laerm;65443;51.436;5.978;2023-06-10T00:33:38;31.18;29.63;32.95;;
67298;Laerm;65443;51.436;5.978;2023-06-10T00:33:48;30.91;29.59;32.63;;
67298;Laerm;65443;51.436;5.978;2023-06-10T00:33:58;30.97;29.56;33.18;;
67298;Laerm;65443;51.436;5.978;2023-06-10T00:34:09;30.93;29.08;33.36;;
67298;Laerm;65443;51.436;5.978;2023-06-10T00:34:19;31.17;29.61;32.70;;
67298;Laerm;65443;51.436;5.978;2023-06-10T00:34:29;31.62;29.68;34.48;;
67298;Laerm;65443;51.436;5.978;2023-06-10T00:34:40;33.04;30.46;36.49;;
67298;Laerm;65443;51.436;5.978;2023-06-10T00:34:50;34.38;31.59;37.93;;
67298;Laerm;65443;51.436;5.978;2023-06-10T00:35:00;35.32;32.74;37.74;;
67298;Laerm;65443;51.436;5.978;2023-06-10T00:35:11;35.24;32.45;39.27;;
67298;Laerm;65443;51.436;5.978;2023-06-10T00:35:21;34.00;31.19;37.01;;
67298;Laerm;65443;51.436;5.978;2023-06-10T00:35:31;32.89;30.91;34.74;;
67298;Laerm;65443;51.436;5.978;2023-06-10T00:35:42;32.49;30.55;34.64;;
67298;Laerm;65443;51.436;5.978;2023-06-10T00:35:52;32.06;30.05;34.41;;
67298;Laerm;65443;51.436;5.978;2023-06-10T00:36:02;31.41;29.84;32.79;;
67298;Laerm;65443;51.436;5.978;2023-06-10T00:36:13;31.08;29.56;32.57;;
67298;Laerm;65443;51.436;5.978;2023-06-10T00:36:23;30.80;29.23;33.84;;
67298;Laerm;65443;51.436;5.978;2023-06-10T00:36:33;30.75;29.27;36.02;;
67298;Laerm;65443;51.436;5.978;2023-06-10T00:36:44;30.79;29.55;34.18;;
67298;Laerm;65443;51.436;5.978;2023-06-10T00:36:54;31.48;29.55;36.11;;
67298;Laerm;65443;51.436;5.978;2023-06-10T00:37:04;32.37;29.55;38.95;;
67298;Laerm;65443;51.436;5.978;2023-06-10T00:37:15;32.71;30.00;38.01;;
67298;Laerm;65443;51.436;5.978;2023-06-10T00:37:25;30.92;28.98;33.13;;
67298;Laerm;65443;51.436;5.978;2023-06-10T00:37:35;31.50;29.77;37.54;;
67298;Laerm;65443;51.436;5.978;2023-06-10T00:37:46;31.69;29.45;37.62;;
67298;Laerm;65443;51.436;5.978;2023-06-10T00:37:56;31.06;29.36;36.79;;
67298;Laerm;65443;51.436;5.978;2023-06-10T00:38:06;31.34;29.70;35.63;;
67298;Laerm;65443;51.436;5.978;2023-06-10T00:38:17;31.65;29.31;37.92;;
67298;Laerm;65443;51.436;5.978;2023-06-10T00:38:27;31.32;29.72;35.01;;
67298;Laerm;65443;51.436;5.978;2023-06-10T00:38:37;32.80;29.75;40.39;;
67298;Laerm;65443;51.436;5.978;2023-06-10T00:38:48;35.05;29.86;47.34;;
67298;Laerm;65443;51.436;5.978;2023-06-10T00:38:58;31.15;29.60;33.19;;
67298;Laerm;65443;51.436;5.978;2023-06-10T00:39:08;31.21;29.61;34.64;;
67298;Laerm;65443;51.436;5.978;2023-06-10T00:39:19;31.03;29.53;33.82;;
67298;Laerm;65443;51.436;5.978;2023-06-10T00:39:29;31.15;29.50;35.99;;
67298;Laerm;65443;51.436;5.978;2023-06-10T00:39:39;31.45;28.99;36.45;;
67298;Laerm;65443;51.436;5.978;2023-06-10T00:39:50;33.34;29.39;46.74;;
67298;Laerm;65443;51.436;5.978;2023-06-10T00:40:00;30.92;29.19;34.77;;
67298;Laerm;65443;51.436;5.978;2023-06-10T00:40:11;30.85;29.41;34.21;;
67298;Laerm;65443;51.436;5.978;2023-06-10T00:40:21;31.55;29.25;46.06;;
67298;Laerm;65443;51.436;5.978;2023-06-10T00:40:33;30.90;29.46;33.83;;
67298;Laerm;65443;51.436;5.978;2023-06-10T00:40:43;31.02;29.15;33.23;;
67298;Laerm;65443;51.436;5.978;2023-06-10T00:40:53;31.13;29.22;34.14;;
67298;Laerm;65443;51.436;5.978;2023-06-10T00:41:04;31.14;29.50;35.06;;
67298;Laerm;65443;51.436;5.978;2023-06-10T00:41:14;31.32;29.86;32.79;;
67298;Laerm;65443;51.436;5.978;2023-06-10T00:41:24;31.48;30.02;34.03;;
67298;Laerm;65443;51.436;5.978;2023-06-10T00:41:36;31.54;29.76;35.07;;
67298;Laerm;65443;51.436;5.978;2023-06-10T00:41:46;31.78;29.95;33.90;;
67298;Laerm;65443;51.436;5.978;2023-06-10T00:41:57;32.62;30.51;35.39;;
67298;Laerm;65443;51.436;5.978;2023-06-10T00:42:07;32.54;30.65;36.40;;
67298;Laerm;65443;51.436;5.978;2023-06-10T00:42:17;32.77;30.50;36.67;;
67298;Laerm;65443;51.436;5.978;2023-06-10T00:42:28;32.39;29.82;36.16;;
67298;Laerm;65443;51.436;5.978;2023-06-10T00:42:39;32.23;30.17;34.34;;
67298;Laerm;65443;51.436;5.978;2023-06-10T00:42:49;35.72;31.95;40.33;;
67298;Laerm;65443;51.436;5.978;2023-06-10T00:43:00;35.46;30.47;40.37;;
67298;Laerm;65443;51.436;5.978;2023-06-10T00:43:10;33.46;30.44;36.42;;
67298;Laerm;65443;51.436;5.978;2023-06-10T00:43:20;31.28;29.90;32.86;;
67298;Laerm;65443;51.436;5.978;2023-06-10T00:43:30;37.85;30.84;43.39;;
67298;Laerm;65443;51.436;5.978;2023-06-10T00:43:41;48.42;39.44;57.33;;
67298;Laerm;65443;51.436;5.978;2023-06-10T00:43:51;62.80;35.85;76.48;;
67298;Laerm;65443;51.436;5.978;2023-06-10T00:44:02;32.68;30.33;37.51;;
67298;Laerm;65443;51.436;5.978;2023-06-10T00:44:12;31.00;29.64;32.84;;
67298;Laerm;65443;51.436;5.978;2023-06-10T00:44:22;31.03;29.67;32.91;;
67298;Laerm;65443;51.436;5.978;2023-06-10T00:44:33;31.02;29.67;32.71;;
67298;Laerm;65443;51.436;5.978;2023-06-10T00:44:43;30.96;29.46;32.35;;
67298;Laerm;65443;51.436;5.978;2023-06-10T00:44:56;31.13;29.40;32.97;;
67298;Laerm;65443;51.436;5.978;2023-06-10T00:45:06;30.72;29.55;32.68;;
67298;Laerm;65443;51.436;5.978;2023-06-10T00:45:17;31.14;29.12;33.32;;
67298;Laerm;65443;51.436;5.978;2023-06-10T00:45:28;31.36;29.51;34.21;;
67298;Laerm;65443;51.436;5.978;2023-06-10T00:45:38;31.02;29.00;33.20;;
67298;Laerm;65443;51.436;5.978;2023-06-10T00:45:49;31.11;29.31;34.10;;
67298;Laerm;65443;51.436;5.978;2023-06-10T00:45:59;31.31;29.26;33.85;;
67298;Laerm;65443;51.436;5.978;2023-06-10T00:46:11;30.96;29.53;32.92;;
67298;Laerm;65443;51.436;5.978;2023-06-10T00:46:22;30.85;29.33;33.54;;
67298;Laerm;65443;51.436;5.978;2023-06-10T00:46:33;31.13;29.41;33.26;;
67298;Laerm;65443;51.436;5.978;2023-06-10T00:46:44;30.98;29.30;33.26;;
67298;Laerm;65443;51.436;5.978;2023-06-10T00:46:55;30.93;29.40;32.99;;
67298;Laerm;65443;51.436;5.978;2023-06-10T00:47:06;30.90;29.39;32.93;;
67298;Laerm;65443;51.436;5.978;2023-06-10T00:47:17;30.83;29.29;32.22;;
67298;Laerm;65443;51.436;5.978;2023-06-10T00:47:28;31.22;29.65;33.98;;
67298;Laerm;65443;51.436;5.978;2023-06-10T00:47:39;30.77;29.33;33.91;;
67298;Laerm;65443;51.436;5.978;2023-06-10T00:47:50;31.06;29.54;34.23;;
67298;Laerm;65443;51.436;5.978;2023-06-10T00:48:00;31.39;29.52;35.81;;
67298;Laerm;65443;51.436;5.978;2023-06-10T00:48:11;31.20;29.43;35.29;;
67298;Laerm;65443;51.436;5.978;2023-06-10T00:48:21;31.42;29.59;34.60;;
67298;Laerm;65443;51.436;5.978;2023-06-10T00:48:32;31.21;29.84;33.62;;
67298;Laerm;65443;51.436;5.978;2023-06-10T00:48:42;30.94;29.29;33.82;;
67298;Laerm;65443;51.436;5.978;2023-06-10T00:48:53;30.89;29.36;37.25;;
67298;Laerm;65443;51.436;5.978;2023-06-10T00:49:03;30.97;29.77;33.74;;
67298;Laerm;65443;51.436;5.978;2023-06-10T00:49:14;30.66;29.51;32.87;;
67298;Laerm;65443;51.436;5.978;2023-06-10T00:49:24;30.98;29.00;32.28;;
67298;Laerm;65443;51.436;5.978;2023-06-10T00:49:35;31.27;29.99;33.65;;
67298;Laerm;65443;51.436;5.978;2023-06-10T00:49:45;31.37;30.29;32.84;;
67298;Laerm;65443;51.436;5.978;2023-06-10T00:49:56;31.34;29.71;38.88;;
67298;Laerm;65443;51.436;5.978;2023-06-10T00:50:06;30.96;29.24;32.62;;
67298;Laerm;65443;51.436;5.978;2023-06-10T00:50:17;31.31;29.66;33.73;;
67298;Laerm;65443;51.436;5.978;2023-06-10T00:50:27;30.91;29.66;32.10;;
67298;Laerm;65443;51.436;5.978;2023-06-10T00:50:38;31.18;29.53;33.02;;
67298;Laerm;65443;51.436;5.978;2023-06-10T00:50:49;31.25;29.46;33.40;;
67298;Laerm;65443;51.436;5.978;2023-06-10T00:50:59;31.25;29.78;33.50;;
67298;Laerm;65443;51.436;5.978;2023-06-10T00:51:10;31.00;29.41;32.77;;
67298;Laerm;65443;51.436;5.978;2023-06-10T00:51:21;31.03;29.48;33.41;;
67298;Laerm;65443;51.436;5.978;2023-06-10T00:51:32;31.75;29.83;36.00;;
67298;Laerm;65443;51.436;5.978;2023-06-10T00:51:42;31.09;29.03;33.46;;
67298;Laerm;65443;51.436;5.978;2023-06-10T00:51:53;31.20;29.82;33.40;;
67298;Laerm;65443;51.436;5.978;2023-06-10T00:52:03;31.18;29.82;32.70;;
67298;Laerm;65443;51.436;5.978;2023-06-10T00:52:15;36.87;29.89;45.43;;
67298;Laerm;65443;51.436;5.978;2023-06-10T00:52:27;48.70;32.73;61.63;;
67298;Laerm;65443;51.436;5.978;2023-06-10T00:52:37;44.63;33.71;54.08;;
67298;Laerm;65443;51.436;5.978;2023-06-10T00:52:48;33.22;31.03;40.88;;
67298;Laerm;65443;51.436;5.978;2023-06-10T00:52:58;32.80;30.18;39.09;;
67298;Laerm;65443;51.436;5.978;2023-06-10T00:53:09;33.16;30.35;37.97;;
67298;Laerm;65443;51.436;5.978;2023-06-10T00:53:21;34.38;30.75;41.50;;
67298;Laerm;65443;51.436;5.978;2023-06-10T00:53:32;31.79;29.89;35.88;;
67298;Laerm;65443;51.436;5.978;2023-06-10T00:53:42;31.12;29.55;34.31;;
67298;Laerm;65443;51.436;5.978;2023-06-10T00:53:53;32.27;30.23;35.48;;
67298;Laerm;65443;51.436;5.978;2023-06-10T00:54:04;31.95;29.71;35.96;;
67298;Laerm;65443;51.436;5.978;2023-06-10T00:54:14;30.71;29.29;32.52;;
67298;Laerm;65443;51.436;5.978;2023-06-10T00:54:25;30.59;29.34;32.55;;
67298;Laerm;65443;51.436;5.978;2023-06-10T00:54:37;30.63;28.77;32.57;;
67298;Laerm;65443;51.436;5.978;2023-06-10T00:54:48;30.79;28.92;36.75;;
67298;Laerm;65443;51.436;5.978;2023-06-10T00:54:59;30.77;29.17;32.64;;
67298;Laerm;65443;51.436;5.978;2023-06-10T00:55:09;30.90;29.15;33.06;;
67298;Laerm;65443;51.436;5.978;2023-06-10T00:55:19;30.69;29.27;31.99;;
67298;Laerm;65443;51.436;5.978;2023-06-10T00:55:30;30.85;29.12;32.67;;
67298;Laerm;65443;51.436;5.978;2023-06-10T00:55:42;30.97;29.32;33.71;;
67298;Laerm;65443;51.436;5.978;2023-06-10T00:55:53;30.41;29.22;31.63;;
67298;Laerm;65443;51.436;5.978;2023-06-10T00:56:03;30.94;28.99;34.43;;
67298;Laerm;65443;51.436;5.978;2023-06-10T00:56:13;32.17;29.42;36.97;;
67298;Laerm;65443;51.436;5.978;2023-06-10T00:56:25;31.07;29.38;35.43;;
67298;Laerm;65443;51.436;5.978;2023-06-10T00:56:35;30.99;29.06;34.20;;
67298;Laerm;65443;51.436;5.978;2023-06-10T00:56:46;48.76;29.04;66.41;;
67298;Laerm;65443;51.436;5.978;2023-06-10T00:57:00;64.11;53.05;68.75;;
67298;Laerm;65443;51.436;5.978;2023-06-10T00:57:10;63.03;55.59;68.05;;
67298;Laerm;65443;51.436;5.978;2023-06-10T00:57:23;62.00;54.83;65.32;;
67298;Laerm;65443;51.436;5.978;2023-06-10T00:57:33;62.94;55.66;66.12;;
67298;Laerm;65443;51.436;5.978;2023-06-10T00:57:45;76.99;60.21;81.89;;
67298;Laerm;65443;51.436;5.978;2023-06-10T00:57:55;79.30;74.40;83.32;;
67298;Laerm;65443;51.436;5.978;2023-06-10T00:58:06;68.88;53.67;79.11;;
67298;Laerm;65443;51.436;5.978;2023-06-10T00:58:17;53.86;40.39;67.20;;
67298;Laerm;65443;51.436;5.978;2023-06-10T00:58:27;42.14;39.00;49.67;;
67298;Laerm;65443;51.436;5.978;2023-06-10T00:58:37;38.84;36.29;44.08;;
67298;Laerm;65443;51.436;5.978;2023-06-10T00:58:48;38.64;35.62;41.51;;
67298;Laerm;65443;51.436;5.978;2023-06-10T00:58:58;39.11;34.58;42.79;;
67298;Laerm;65443;51.436;5.978;2023-06-10T00:59:09;36.52;32.87;39.33;;
67298;Laerm;65443;51.436;5.978;2023-06-10T00:59:19;34.78;32.66;37.19;;
67298;Laerm;65443;51.436;5.978;2023-06-10T00:59:30;33.85;31.58;37.55;;
67298;Laerm;65443;51.436;5.978;2023-06-10T00:59:41;33.20;30.85;38.32;;
67298;Laerm;65443;51.436;5.978;2023-06-10T00:59:53;32.00;29.94;37.46;;
67298;Laerm;65443;51.436;5.978;2023-06-10T01:00:04;55.08;29.84;77.86;;
67298;Laerm;65443;51.436;5.978;2023-06-10T01:00:17;64.36;31.01;78.57;;
67298;Laerm;65443;51.436;5.978;2023-06-10T01:00:27;32.46;30.47;34.40;;
67298;Laerm;65443;51.436;5.978;2023-06-10T01:00:38;32.00;30.21;33.67;;